Startpagina
METAR-TAF:

METAR-TAF

Vliegvelden :

Loja, Ecuador

breedte: 03-59-45S, lengte: 079-22-19W, hoogte: 1236 m

Actueel weer

Dit bericht is 10 uur en het 55 minuten geleden gemaakt, om 23:00 UTC
Wind 11 kt uit het oostzuidoosten
Temperatuur 27°C
Vochtigheid 39%
Druk 1016 hPa
Zicht 10 km of meer
Verspreide wolken op 4000 ft
Gebroken wolken op 10000 ft

METAR: SECA 182300Z 11011KT 9999 SCT040 BKN100 27/12 Q1016

Tijdstip: 04:55 (09:55 UTC)


TAF: ontbreekt

Waarnemingen en weersverwachtingen van meer dan 4000 vliegvelden (METAR en TAF).

De beschikbare stations zijn de gele en rode punten op de kaart.

Ga met uw muis naar het station om de naam te zien.

Klik dan om waarnemingen en weersverwachtingen te zien.

kaart wijzigen: klik op de groene knoppen met een zwart kruis om in te zoomen, op de groene knop met een streepje om uit te zoomen of op de groene pijlen voor aangrenzende kaarten.


METAR-TAF: